Terminal Aerodrome Forecast
Issued by NWS Pocatello, ID

Home | Current Version | Previous Version | Text Only | Print | Product List | Glossary On
Versions: 1 2 3 4 5 6 7 8 9 10 11 12 13 14 15 16 17 18 19 20 21 22 23 24
000
FTUS45 KPIH 242032 AAA
TAFPIH
TAF AMD
KPIH 242032Z 2421/2518 VRB06KT P6SM -SHRA VCTS SCT035 BKN050CB
      TEMPO 2421/2422 5SM -TSRA BKN035CB
     FM250300 VRB06KT P6SM VCSH BKN090
     FM250700 VRB06KT 3SM BR SCT002 BKN080=

USA.gov is the U.S. government's official web portal to all federal, state and local government web resources and services.